Time;durP1;ratioP1;P1;durP2;ratioP2;P2;SDS_P1;SDS_P2;PMS_P1;PMS_P2;Temp;Humidity;BMP_temperature;BMP_pressure;BME280_temperature;BME280_humidity;BME280_pressure;Samples;Min_cycle;Max_cycle;Signal;HPM_P1;HPM_P2
2022/08/31 00:05:39;;;;;;;3.63;3.33;;;;;;;;;;5025875;28;20552;-77
2022/08/31 00:08:05;;;;;;;5.00;3.30;;;;;;;;;;5027936;28;20274;-77
2022/08/31 00:10:31;;;;;;;6.80;3.60;;;;;;;;;;5027867;28;20179;-77
2022/08/31 00:12:57;;;;;;;4.83;3.60;;;;;;;;;;5027766;28;20207;-77
2022/08/31 00:15:24;;;;;;;3.90;3.50;;;;;;;;;;5027837;28;20294;-77
2022/08/31 00:17:50;;;;;;;4.10;3.50;;;;;;;;;;5027671;28;20244;-77
2022/08/31 00:20:17;;;;;;;4.30;3.90;;;;;;;;;;5027671;28;20182;-77
2022/08/31 00:22:44;;;;;;;5.53;4.20;;;;;;;;;;5027562;28;20210;-77
2022/08/31 00:25:10;;;;;;;4.53;3.40;;;;;;;;;;5027715;28;20179;-77
2022/08/31 00:27:36;;;;;;;5.50;4.13;;;;;;;;;;5027612;28;20178;-77
2022/08/31 00:30:04;;;;;;;4.80;4.40;;;;;;;;;;5027655;28;20332;-77
2022/08/31 00:32:30;;;;;;;4.57;4.17;;;;;;;;;;5027745;28;20222;-77
2022/08/31 00:34:56;;;;;;;5.10;4.27;;;;;;;;;;5027733;28;20659;-77
2022/08/31 00:37:22;;;;;;;4.50;4.10;;;;;;;;;;5027433;28;20337;-77
2022/08/31 00:39:48;;;;;;;5.10;3.97;;;;;;;;;;5027745;28;20202;-77
2022/08/31 00:42:14;;;;;;;4.53;3.83;;;;;;;;;;5027403;28;20218;-77
2022/08/31 00:44:40;;;;;;;4.23;3.83;;;;;;;;;;5027582;28;20285;-77
2022/08/31 00:47:06;;;;;;;5.20;4.23;;;;;;;;;;5027387;28;20190;-77
2022/08/31 00:49:35;;;;;;;4.43;4.03;;;;;;;;;;5027396;28;20221;-77
2022/08/31 00:52:04;;;;;;;5.00;3.80;;;;;;;;;;5027645;28;20217;-77
2022/08/31 00:54:31;;;;;;;4.20;3.83;;;;;;;;;;5027492;28;20236;-77
2022/08/31 00:56:57;;;;;;;4.20;3.80;;;;;;;;;;5027340;28;20221;-77
2022/08/31 00:59:24;;;;;;;4.37;3.77;;;;;;;;;;5027315;28;20179;-77
2022/08/31 01:01:50;;;;;;;5.97;4.47;;;;;;;;;;5027304;28;20187;-77
2022/08/31 01:04:16;;;;;;;6.03;4.30;;;;;;;;;;5027105;28;20272;-77
2022/08/31 01:06:43;;;;;;;5.87;4.23;;;;;;;;;;5027452;28;20225;-77
2022/08/31 01:09:09;;;;;;;5.07;3.73;;;;;;;;;;5027299;28;20210;-77
2022/08/31 01:11:36;;;;;;;5.07;3.87;;;;;;;;;;5031178;28;20175;-77
2022/08/31 01:14:03;;;;;;;4.27;3.70;;;;;;;;;;5031190;28;20199;-77
2022/08/31 01:16:33;;;;;;;4.53;3.70;;;;;;;;;;5015788;28;20182;-77
2022/08/31 01:19:01;;;;;;;5.20;3.87;;;;;;;;;;5031026;28;20213;-77
2022/08/31 01:21:47;;;;;;;4.70;4.00;;;;;;;;;;5030996;28;20180;-77
2022/08/31 01:24:13;;;;;;;4.40;4.00;;;;;;;;;;5030933;28;20211;-77
2022/08/31 01:26:39;;;;;;;5.00;3.87;;;;;;;;;;5015643;28;20207;-77
2022/08/31 01:29:06;;;;;;;5.10;4.07;;;;;;;;;;5030767;28;20210;-77
2022/08/31 01:31:36;;;;;;;4.90;4.20;;;;;;;;;;5030749;28;20580;-77
2022/08/31 01:34:02;;;;;;;4.20;3.70;;;;;;;;;;5030674;28;20214;-77
2022/08/31 01:36:28;;;;;;;4.20;3.70;;;;;;;;;;5030774;28;20186;-77
2022/08/31 01:38:54;;;;;;;4.53;3.63;;;;;;;;;;5030548;28;20179;-77
2022/08/31 01:41:21;;;;;;;6.20;3.93;;;;;;;;;;5030579;28;20679;-77
2022/08/31 01:43:48;;;;;;;4.90;3.70;;;;;;;;;;5030468;28;20245;-77
2022/08/31 01:46:14;;;;;;;5.53;3.70;;;;;;;;;;5030766;28;20270;-77
2022/08/31 01:48:41;;;;;;;4.57;3.33;;;;;;;;;;5030553;28;20619;-77
2022/08/31 01:51:07;;;;;;;4.10;3.70;;;;;;;;;;5030455;28;20201;-77
2022/08/31 01:53:33;;;;;;;5.60;3.83;;;;;;;;;;5030538;28;20249;-77
2022/08/31 01:55:59;;;;;;;5.20;3.80;;;;;;;;;;5030281;28;20190;-77
2022/08/31 01:58:25;;;;;;;5.53;4.00;;;;;;;;;;5030205;28;20258;-77
2022/08/31 02:00:51;;;;;;;7.40;4.23;;;;;;;;;;5015014;28;20282;-77
2022/08/31 02:03:17;;;;;;;4.20;3.80;;;;;;;;;;5014908;28;20300;-77
2022/08/31 02:05:43;;;;;;;4.53;4.13;;;;;;;;;;5030302;28;20277;-77
2022/08/31 02:08:10;;;;;;;4.30;3.90;;;;;;;;;;5029952;28;20183;-77
2022/08/31 02:10:37;;;;;;;4.73;4.33;;;;;;;;;;5030481;28;20179;-77
2022/08/31 02:13:03;;;;;;;4.67;4.07;;;;;;;;;;5029959;28;20225;-77
2022/08/31 02:15:29;;;;;;;5.33;4.10;;;;;;;;;;5030188;28;20190;-77
2022/08/31 02:17:55;;;;;;;4.40;4.00;;;;;;;;;;5029849;28;20182;-77
2022/08/31 02:20:21;;;;;;;4.27;3.87;;;;;;;;;;5029853;28;20189;-77
2022/08/31 02:22:47;;;;;;;5.50;3.93;;;;;;;;;;5028890;28;20215;-77
2022/08/31 02:25:14;;;;;;;4.33;3.93;;;;;;;;;;5029773;28;20290;-77
2022/08/31 02:27:40;;;;;;;4.27;3.90;;;;;;;;;;5029783;28;20186;-77
2022/08/31 02:30:08;;;;;;;5.07;4.23;;;;;;;;;;5029784;28;20176;-76
2022/08/31 02:32:34;;;;;;;4.57;4.10;;;;;;;;;;5029608;28;20570;-77
2022/08/31 02:35:00;;;;;;;4.67;4.03;;;;;;;;;;5029959;28;20194;-77
2022/08/31 02:37:26;;;;;;;4.63;4.13;;;;;;;;;;5029356;28;20229;-77
2022/08/31 02:39:52;;;;;;;4.73;4.23;;;;;;;;;;5029417;28;20183;-77
2022/08/31 02:42:18;;;;;;;6.87;4.60;;;;;;;;;;5029620;28;20183;-77
2022/08/31 02:44:44;;;;;;;4.50;4.10;;;;;;;;;;5029486;28;20191;-77
2022/08/31 02:47:10;;;;;;;4.40;4.00;;;;;;;;;;5029403;28;20179;-77
2022/08/31 02:49:36;;;;;;;6.57;4.33;;;;;;;;;;5029443;28;20218;-77
2022/08/31 02:52:02;;;;;;;5.77;4.37;;;;;;;;;;5029263;28;20175;-77
2022/08/31 02:54:28;;;;;;;4.43;4.03;;;;;;;;;;5029154;28;20203;-77
2022/08/31 02:56:54;;;;;;;4.87;4.37;;;;;;;;;;5029092;28;20249;-77
2022/08/31 02:59:20;;;;;;;5.07;4.20;;;;;;;;;;5029290;28;20187;-77
2022/08/31 03:01:47;;;;;;;4.70;4.30;;;;;;;;;;5029216;28;20234;-77
2022/08/31 03:04:13;;;;;;;5.47;4.37;;;;;;;;;;5029022;28;20211;-77
2022/08/31 03:06:38;;;;;;;4.77;4.10;;;;;;;;;;5028964;28;20213;-77
2022/08/31 03:09:05;;;;;;;4.43;3.80;;;;;;;;;;5028988;28;20621;-77
2022/08/31 03:11:30;;;;;;;5.13;4.03;;;;;;;;;;5028868;28;20274;-77
2022/08/31 03:13:57;;;;;;;4.57;4.17;;;;;;;;;;5028902;28;20203;-77
2022/08/31 03:16:23;;;;;;;5.30;4.00;;;;;;;;;;5029176;28;20191;-77
2022/08/31 03:18:49;;;;;;;4.40;4.00;;;;;;;;;;5028710;28;20550;-77
2022/08/31 03:21:16;;;;;;;4.57;4.17;;;;;;;;;;5028761;28;20190;-77
2022/08/31 03:23:42;;;;;;;4.67;4.17;;;;;;;;;;5028536;28;20214;-77
2022/08/31 03:26:08;;;;;;;5.10;4.60;;;;;;;;;;5028887;28;20186;-77
2022/08/31 03:28:35;;;;;;;4.63;4.23;;;;;;;;;;5013149;28;20548;-77
2022/08/31 03:31:01;;;;;;;4.70;4.30;;;;;;;;;;5028673;28;20187;-77
2022/08/31 03:33:27;;;;;;;5.93;4.17;;;;;;;;;;5028099;28;20226;-77
2022/08/31 03:35:53;;;;;;;4.90;4.40;;;;;;;;;;5013313;28;20633;-77
2022/08/31 03:38:19;;;;;;;5.00;4.47;;;;;;;;;;5028366;28;20191;-77
2022/08/31 03:40:46;;;;;;;5.97;4.53;;;;;;;;;;5028591;28;20210;-77
2022/08/31 03:43:13;;;;;;;4.50;4.10;;;;;;;;;;5028382;28;20206;-77
2022/08/31 03:45:40;;;;;;;4.87;4.23;;;;;;;;;;5028332;28;20183;-77
2022/08/31 03:48:06;;;;;;;4.47;4.03;;;;;;;;;;5028166;28;20245;-77
2022/08/31 03:50:33;;;;;;;5.60;4.20;;;;;;;;;;5028020;28;20599;-77
2022/08/31 03:53:02;;;;;;;10.03;4.40;;;;;;;;;;5028009;28;20206;-77
2022/08/31 03:55:29;;;;;;;6.50;4.57;;;;;;;;;;5028463;28;20179;-77
2022/08/31 03:57:55;;;;;;;4.93;4.50;;;;;;;;;;5027941;28;20797;-77
2022/08/31 04:00:22;;;;;;;4.90;4.40;;;;;;;;;;5028020;28;20662;-77
2022/08/31 04:02:48;;;;;;;7.47;4.73;;;;;;;;;;5027847;28;20751;-77
2022/08/31 04:05:14;;;;;;;5.87;4.03;;;;;;;;;;5027819;28;20220;-77
2022/08/31 04:07:40;;;;;;;5.80;4.50;;;;;;;;;;5027727;28;20205;-77
2022/08/31 04:10:07;;;;;;;6.07;4.33;;;;;;;;;;5028603;28;20225;-77
2022/08/31 04:12:33;;;;;;;4.57;4.17;;;;;;;;;;5027856;28;20281;-77
2022/08/31 04:14:59;;;;;;;6.53;4.40;;;;;;;;;;5027973;28;20262;-77
2022/08/31 04:17:25;;;;;;;4.77;4.20;;;;;;;;;;5027828;28;20183;-77
2022/08/31 04:19:51;;;;;;;5.53;4.50;;;;;;;;;;5027807;28;20191;-77
2022/08/31 04:22:17;;;;;;;5.10;4.60;;;;;;;;;;5027767;28;20233;-77
2022/08/31 04:24:43;;;;;;;6.77;3.97;;;;;;;;;;5027755;28;20194;-77
2022/08/31 04:27:09;;;;;;;4.73;4.23;;;;;;;;;;5012544;28;20327;-77
2022/08/31 04:29:35;;;;;;;4.47;4.07;;;;;;;;;;5027723;28;20179;-77
2022/08/31 04:32:01;;;;;;;4.90;4.40;;;;;;;;;;5027678;28;20191;-77
2022/08/31 04:34:27;;;;;;;5.20;4.10;;;;;;;;;;5065523;22;20233;-77
2022/08/31 04:36:53;;;;;;;5.03;4.13;;;;;;;;;;5031597;28;20253;-77
2022/08/31 04:39:19;;;;;;;5.63;4.20;;;;;;;;;;5031669;28;20209;-77
2022/08/31 04:41:46;;;;;;;4.60;4.20;;;;;;;;;;5014852;28;20181;-77
2022/08/31 04:44:12;;;;;;;4.80;4.30;;;;;;;;;;5031035;28;20210;-77
2022/08/31 04:46:39;;;;;;;4.43;3.97;;;;;;;;;;5035217;28;20324;-77
2022/08/31 04:49:06;;;;;;;5.30;4.47;;;;;;;;;;5018629;28;20174;-77
2022/08/31 04:51:34;;;;;;;4.93;4.50;;;;;;;;;;5019143;28;20269;-77
2022/08/31 04:54:01;;;;;;;4.70;4.30;;;;;;;;;;5035501;28;20205;-77
2022/08/31 04:56:28;;;;;;;6.43;4.20;;;;;;;;;;5018837;28;20182;-77
2022/08/31 04:58:59;;;;;;;5.50;4.40;;;;;;;;;;5034731;28;20178;-76
2022/08/31 05:01:26;;;;;;;5.90;4.33;;;;;;;;;;5018238;28;20178;-76
2022/08/31 05:03:54;;;;;;;4.73;4.20;;;;;;;;;;5018054;28;20260;-76
2022/08/31 05:06:22;;;;;;;5.13;3.87;;;;;;;;;;5034590;28;20216;-76
2022/08/31 05:08:52;;;;;;;4.80;4.30;;;;;;;;;;5034487;28;20735;-76
2022/08/31 05:11:18;;;;;;;4.60;4.20;;;;;;;;;;5034443;28;20174;-77
2022/08/31 05:13:45;;;;;;;4.80;4.30;;;;;;;;;;5018074;28;20237;-76
2022/08/31 05:16:12;;;;;;;4.50;4.10;;;;;;;;;;5034397;28;20181;-76
2022/08/31 05:18:39;;;;;;;4.70;4.20;;;;;;;;;;5034076;28;20269;-76
2022/08/31 05:21:16;;;;;;;4.80;4.00;;;;;;;;;;5017632;28;20265;-76
2022/08/31 05:23:42;;;;;;;4.67;4.27;;;;;;;;;;5035545;28;20621;-76
2022/08/31 05:26:08;;;;;;;4.40;4.00;;;;;;;;;;5018015;28;20217;-75
2022/08/31 05:28:35;;;;;;;6.97;4.27;;;;;;;;;;5033938;28;20282;-75
2022/08/31 05:31:02;;;;;;;4.43;3.80;;;;;;;;;;5018094;28;20182;-76
2022/08/31 05:33:29;;;;;;;4.30;3.50;;;;;;;;;;5034086;28;20300;-75
2022/08/31 05:35:55;;;;;;;4.17;3.67;;;;;;;;;;5034041;28;20188;-76
2022/08/31 05:38:21;;;;;;;6.33;3.97;;;;;;;;;;5035080;28;20224;-76
2022/08/31 05:40:54;;;;;;;4.03;3.60;;;;;;;;;;5017783;28;20194;-76
2022/08/31 05:43:20;;;;;;;4.30;3.40;;;;;;;;;;5017401;28;20210;-76
2022/08/31 05:45:46;;;;;;;4.13;3.80;;;;;;;;;;5017433;28;20183;-76
2022/08/31 05:48:12;;;;;;;4.40;4.00;;;;;;;;;;5017235;28;20588;-77
2022/08/31 05:50:38;;;;;;;5.57;3.97;;;;;;;;;;5017307;28;20175;-75
2022/08/31 05:53:05;;;;;;;4.47;3.83;;;;;;;;;;5017561;28;20301;-77
2022/08/31 05:55:31;;;;;;;4.03;3.73;;;;;;;;;;5017018;28;20186;-77
2022/08/31 05:57:57;;;;;;;4.50;3.80;;;;;;;;;;5033522;28;20288;-76
2022/08/31 06:00:24;;;;;;;5.07;4.20;;;;;;;;;;5017192;28;20192;-76
2022/08/31 06:02:50;;;;;;;3.93;3.63;;;;;;;;;;5033422;28;20206;-76
2022/08/31 06:05:16;;;;;;;4.73;3.70;;;;;;;;;;5034789;28;20174;-76
2022/08/31 06:07:42;;;;;;;5.13;3.60;;;;;;;;;;5016993;28;20671;-77
2022/08/31 06:10:08;;;;;;;5.40;4.10;;;;;;;;;;5017194;28;20202;-76
2022/08/31 06:12:37;;;;;;;4.27;3.37;;;;;;;;;;5016847;28;20715;-75
2022/08/31 06:15:04;;;;;;;5.57;3.93;;;;;;;;;;5033553;28;20699;-77
2022/08/31 06:17:33;;;;;;;5.17;3.53;;;;;;;;;;5016829;28;20236;-77
2022/08/31 06:20:00;;;;;;;4.20;3.80;;;;;;;;;;5016906;28;20183;-77
2022/08/31 06:22:26;;;;;;;4.60;3.60;;;;;;;;;;5033223;28;20181;-77
2022/08/31 06:24:52;;;;;;;5.93;3.50;;;;;;;;;;5016769;28;20170;-76
2022/08/31 06:27:18;;;;;;;4.20;3.80;;;;;;;;;;5016853;28;20556;-76
2022/08/31 06:29:45;;;;;;;4.33;3.93;;;;;;;;;;5033187;28;20228;-76
2022/08/31 06:32:12;;;;;;;6.07;3.60;;;;;;;;;;5033105;28;20602;-76
2022/08/31 06:34:39;;;;;;;5.30;3.93;;;;;;;;;;5016620;28;20224;-75
2022/08/31 06:37:06;;;;;;;4.67;4.13;;;;;;;;;;5032771;28;20228;-77
2022/08/31 06:39:32;;;;;;;6.30;4.10;;;;;;;;;;5032978;28;20178;-79
2022/08/31 06:41:58;;;;;;;4.90;3.73;;;;;;;;;;5033233;28;20210;-76
2022/08/31 06:44:25;;;;;;;4.40;4.00;;;;;;;;;;5033934;28;20213;-77
2022/08/31 06:46:52;;;;;;;5.07;4.10;;;;;;;;;;5032595;28;20171;-77
2022/08/31 06:49:19;;;;;;;6.40;3.83;;;;;;;;;;5032936;28;20182;-77
2022/08/31 06:51:45;;;;;;;5.27;4.03;;;;;;;;;;5032682;28;20174;-77
2022/08/31 06:54:12;;;;;;;4.30;3.90;;;;;;;;;;5032539;28;20235;-77
2022/08/31 06:56:38;;;;;;;4.10;3.70;;;;;;;;;;5032600;28;20349;-77
2022/08/31 06:59:05;;;;;;;4.80;4.17;;;;;;;;;;5032677;28;20183;-76
2022/08/31 07:01:32;;;;;;;5.03;3.90;;;;;;;;;;5032434;28;20215;-77
2022/08/31 07:03:59;;;;;;;5.90;4.00;;;;;;;;;;5032366;28;20214;-77
2022/08/31 07:06:26;;;;;;;4.43;3.90;;;;;;;;;;5033578;28;20203;-76
2022/08/31 07:08:55;;;;;;;4.20;3.80;;;;;;;;;;5031670;28;20174;-77
2022/08/31 07:11:23;;;;;;;6.07;4.10;;;;;;;;;;5032308;28;20201;-77
2022/08/31 07:13:50;;;;;;;5.50;3.67;;;;;;;;;;5032208;28;20240;-77
2022/08/31 07:16:17;;;;;;;5.20;3.93;;;;;;;;;;5032183;28;20736;-76
2022/08/31 07:18:43;;;;;;;4.73;4.10;;;;;;;;;;5032235;28;20221;-77
2022/08/31 07:21:11;;;;;;;6.20;4.40;;;;;;;;;;5032159;28;20593;-77
2022/08/31 07:23:37;;;;;;;4.70;4.30;;;;;;;;;;5015430;28;20586;-77
2022/08/31 07:26:04;;;;;;;5.57;4.30;;;;;;;;;;5015775;28;20576;-77
2022/08/31 07:28:30;;;;;;;5.17;4.10;;;;;;;;;;5031923;28;20564;-77
2022/08/31 07:30:56;;;;;;;7.97;4.37;;;;;;;;;;5015570;28;20185;-77
2022/08/31 07:33:22;;;;;;;5.73;4.30;;;;;;;;;;5015424;28;20225;-77
2022/08/31 07:35:48;;;;;;;6.03;4.40;;;;;;;;;;5015304;28;20189;-77
2022/08/31 07:43:58;;;;;;;5.73;4.30;;;;;;;;;;5031797;28;20217;-77
2022/08/31 07:46:28;;;;;;;5.77;4.67;;;;;;;;;;5031808;28;20543;-77
2022/08/31 07:48:54;;;;;;;4.73;4.23;;;;;;;;;;5032906;28;20162;-77
2022/08/31 07:51:22;;;;;;;5.10;4.60;;;;;;;;;;5015321;28;20624;-77
2022/08/31 07:53:48;;;;;;;5.30;4.63;;;;;;;;;;5015792;28;20217;-78
2022/08/31 07:56:16;;;;;;;5.70;5.10;;;;;;;;;;5031466;28;20224;-77
2022/08/31 07:58:46;;;;;;;7.33;5.00;;;;;;;;;;5031230;28;20206;-77
2022/08/31 08:01:13;;;;;;;5.30;4.80;;;;;;;;;;5032885;28;20170;-77
2022/08/31 08:03:42;;;;;;;6.43;5.27;;;;;;;;;;5032567;28;20202;-77
2022/08/31 08:06:13;;;;;;;6.40;5.20;;;;;;;;;;5031458;28;20236;-77
2022/08/31 08:08:41;;;;;;;6.53;5.63;;;;;;;;;;5015049;28;20182;-77
2022/08/31 08:11:07;;;;;;;6.30;5.63;;;;;;;;;;5031135;28;20597;-76
2022/08/31 08:13:34;;;;;;;6.17;5.47;;;;;;;;;;5031094;28;20230;-77
2022/08/31 08:16:00;;;;;;;6.30;5.57;;;;;;;;;;5014937;28;20186;-77
2022/08/31 08:18:26;;;;;;;7.60;6.00;;;;;;;;;;5031075;28;20666;-77
2022/08/31 08:20:53;;;;;;;6.67;5.97;;;;;;;;;;5014682;28;20240;-77
2022/08/31 08:23:19;;;;;;;6.57;5.97;;;;;;;;;;5030963;28;20210;-77
2022/08/31 08:25:46;;;;;;;7.93;6.57;;;;;;;;;;5014771;28;20297;-76
2022/08/31 08:28:20;;;;;;;7.13;6.43;;;;;;;;;;5030666;28;20209;-78
2022/08/31 08:30:53;;;;;;;7.43;6.70;;;;;;;;;;5015702;28;20179;-76
2022/08/31 08:33:19;;;;;;;7.87;6.70;;;;;;;;;;5030929;28;20861;-77
2022/08/31 08:35:45;;;;;;;8.17;6.93;;;;;;;;;;5030888;28;20189;-76
2022/08/31 08:38:11;;;;;;;9.37;7.57;;;;;;;;;;5030717;28;20257;-76
2022/08/31 08:40:43;;;;;;;9.33;7.20;;;;;;;;;;5031093;28;20276;-76
2022/08/31 08:43:14;;;;;;;11.60;7.40;;;;;;;;;;5031940;28;20210;-76
2022/08/31 08:45:42;;;;;;;8.37;7.00;;;;;;;;;;5014790;28;20206;-76
2022/08/31 08:48:11;;;;;;;9.57;7.20;;;;;;;;;;5031889;28;20174;-76
2022/08/31 08:50:39;;;;;;;9.03;7.07;;;;;;;;;;5014582;28;20178;-77
2022/08/31 08:53:06;;;;;;;7.60;6.80;;;;;;;;;;5030691;28;20202;-77
2022/08/31 08:55:41;;;;;;;8.17;6.83;;;;;;;;;;5031092;28;20178;-77
2022/08/31 08:58:11;;;;;;;8.47;6.67;;;;;;;;;;5030425;28;20174;-77
2022/08/31 09:00:37;;;;;;;7.37;6.43;;;;;;;;;;5030997;28;20252;-77
2022/08/31 09:03:15;;;;;;;9.43;6.77;;;;;;;;;;5031722;28;20209;-77
2022/08/31 09:05:44;;;;;;;7.80;6.77;;;;;;;;;;5030892;28;20178;-77
2022/08/31 09:08:15;;;;;;;9.67;6.80;;;;;;;;;;5031728;28;20167;-77
2022/08/31 09:10:43;;;;;;;7.27;6.57;;;;;;;;;;5030509;28;20183;-77
2022/08/31 09:13:18;;;;;;;7.47;6.37;;;;;;;;;;5031718;28;20187;-77
2022/08/31 09:15:53;;;;;;;7.83;6.47;;;;;;;;;;5030661;28;20178;-77
2022/08/31 09:18:31;;;;;;;7.37;6.47;;;;;;;;;;5030560;28;20178;-77
2022/08/31 09:21:01;;;;;;;6.90;6.17;;;;;;;;;;5030556;28;20182;-77
2022/08/31 09:23:28;;;;;;;8.40;6.83;;;;;;;;;;5031721;28;20198;-77
2022/08/31 09:25:57;;;;;;;8.10;6.50;;;;;;;;;;5030426;28;20635;-77
2022/08/31 09:28:45;;;;;;;8.27;6.60;;;;;;;;;;5030545;28;20253;-77
2022/08/31 09:31:33;;;;;;;6.50;5.57;;;;;;;;;;5032191;28;20178;-76
2022/08/31 09:34:00;;;;;;;7.50;6.70;;;;;;;;;;5017922;28;20210;-76
2022/08/31 09:36:32;;;;;;;8.50;6.30;;;;;;;;;;5034027;28;20357;-76
2022/08/31 09:39:12;;;;;;;8.27;6.70;;;;;;;;;;5034017;28;20236;-76
2022/08/31 09:41:38;;;;;;;8.57;6.87;;;;;;;;;;5034058;28;20550;-76
2022/08/31 09:44:17;;;;;;;6.60;5.93;;;;;;;;;;5017524;28;20256;-76
2022/08/31 09:46:47;;;;;;;8.33;6.43;;;;;;;;;;5033974;28;20185;-76
2022/08/31 09:49:21;;;;;;;7.83;5.83;;;;;;;;;;5033713;28;20645;-76
2022/08/31 09:51:48;;;;;;;6.95;6.25;;;;;;;;;;5035093;28;20182;-76
2022/08/31 09:57:00;;;;;;;7.10;6.43;;;;;;;;;;5034754;28;20217;-76
2022/08/31 09:59:38;;;;;;;6.60;5.75;;;;;;;;;;5034922;28;20178;-76
2022/08/31 10:02:28;;;;;;;6.93;6.22;;;;;;;;;;5033570;28;20235;-76
2022/08/31 10:05:04;;;;;;;7.23;6.53;;;;;;;;;;5026126;28;20576;-76
2022/08/31 10:07:30;;;;;;;6.65;6.05;;;;;;;;;;5033466;28;20213;-76
2022/08/31 10:10:02;;;;;;;6.35;5.47;;;;;;;;;;5033392;28;20182;-76
2022/08/31 10:12:39;;;;;;;7.30;5.75;;;;;;;;;;5034587;28;20228;-76
2022/08/31 10:15:10;;;;;;;6.68;5.97;;;;;;;;;;5033455;28;20178;-76
2022/08/31 10:17:40;;;;;;;6.65;6.00;;;;;;;;;;5033273;28;20167;-76
2022/08/31 10:20:10;;;;;;;7.65;6.40;;;;;;;;;;5033216;28;20167;-76
2022/08/31 10:22:44;;;;;;;6.75;6.05;;;;;;;;;;5034732;28;20167;-76
2022/08/31 10:25:11;;;;;;;6.80;6.10;;;;;;;;;;5033359;28;20170;-76
2022/08/31 10:27:39;;;;;;;6.43;5.82;;;;;;;;;;5034219;28;20216;-76
2022/08/31 10:30:08;;;;;;;6.05;5.45;;;;;;;;;;5034820;28;20181;-77
2022/08/31 10:32:37;;;;;;;5.65;5.05;;;;;;;;;;5033201;28;20171;-77
2022/08/31 10:35:06;;;;;;;5.78;5.28;;;;;;;;;;5017390;28;20171;-76
2022/08/31 10:37:48;;;;;;;6.03;5.43;;;;;;;;;;5032944;28;20238;-77
2022/08/31 10:40:27;;;;;;;6.38;5.22;;;;;;;;;;5033099;28;20201;-77
2022/08/31 10:43:08;;;;;;;5.78;5.28;;;;;;;;;;5031746;28;20256;-77
2022/08/31 10:45:35;;;;;;;6.18;5.50;;;;;;;;;;5033085;28;20641;-77
2022/08/31 10:48:03;;;;;;;6.00;5.40;;;;;;;;;;5032797;28;20179;-77
2022/08/31 10:50:34;;;;;;;5.50;5.00;;;;;;;;;;5016458;28;20680;-76
2022/08/31 12:01:43;;;;;;;6.88;6.18;;;;;;;;;;6119094;22;21200;-76
2022/08/31 12:04:29;;;;;;;5.40;4.93;;;;;;;;;;5051186;28;20687;-76
2022/08/31 12:07:05;;;;;;;5.72;5.22;;;;;;;;;;5050834;28;20205;-76
2022/08/31 12:09:31;;;;;;;6.50;4.60;;;;;;;;;;5051231;28;20173;-75
2022/08/31 12:12:06;;;;;;;5.45;4.95;;;;;;;;;;5051172;28;20316;-75
2022/08/31 12:14:48;;;;;;;5.53;4.70;;;;;;;;;;5051741;28;20181;-77
2022/08/31 12:17:23;;;;;;;4.90;4.50;;;;;;;;;;5051234;28;20177;-76
2022/08/31 12:20:12;;;;;;;5.30;4.80;;;;;;;;;;5050720;28;20166;-76
2022/08/31 12:25:59;;;;;;;5.65;5.03;;;;;;;;;;5052585;28;20192;-77
2022/08/31 12:28:38;;;;;;;5.13;4.72;;;;;;;;;;5051011;28;20174;-76
2022/08/31 12:31:06;;;;;;;5.20;4.70;;;;;;;;;;5052224;28;20219;-76
2022/08/31 12:33:32;;;;;;;5.15;4.75;;;;;;;;;;5052181;28;20170;-76
2022/08/31 12:36:15;;;;;;;6.63;4.85;;;;;;;;;;5052067;28;20165;-76
2022/08/31 12:38:41;;;;;;;5.28;4.78;;;;;;;;;;5050723;28;20551;-76
2022/08/31 12:41:08;;;;;;;4.85;4.45;;;;;;;;;;5050736;28;20181;-76
2022/08/31 12:43:40;;;;;;;5.00;4.60;;;;;;;;;;5034314;28;20239;-76
2022/08/31 12:46:19;;;;;;;5.07;4.65;;;;;;;;;;5050842;28;20170;-76
2022/08/31 12:49:04;;;;;;;5.28;4.50;;;;;;;;;;5051090;28;20173;-76
2022/08/31 12:51:39;;;;;;;5.43;5.00;;;;;;;;;;5051534;28;20195;-76
2022/08/31 12:54:24;;;;;;;6.25;5.70;;;;;;;;;;5050525;28;20689;-76
2022/08/31 12:56:59;;;;;;;6.43;5.82;;;;;;;;;;5051999;28;20215;-76
2022/08/31 12:59:48;;;;;;;6.80;6.07;;;;;;;;;;5050793;28;20260;-76
2022/08/31 13:02:15;;;;;;;6.38;5.78;;;;;;;;;;5039898;28;20220;-76
2022/08/31 13:04:42;;;;;;;6.15;5.63;;;;;;;;;;5050521;28;20259;-76
2022/08/31 13:07:20;;;;;;;7.57;5.70;;;;;;;;;;5054950;28;20174;-76
2022/08/31 13:09:46;;;;;;;7.03;6.05;;;;;;;;;;5054511;28;20182;-76
2022/08/31 13:12:21;;;;;;;6.45;5.93;;;;;;;;;;5054144;28;20698;-76
2022/08/31 13:14:47;;;;;;;6.53;5.97;;;;;;;;;;5054338;28;20528;-76
2022/08/31 13:17:15;;;;;;;6.80;6.20;;;;;;;;;;5054518;28;20180;-76
2022/08/31 13:19:48;;;;;;;7.57;6.88;;;;;;;;;;5054280;28;20201;-76
2022/08/31 13:22:15;;;;;;;7.75;7.05;;;;;;;;;;5054029;28;20687;-76
2022/08/31 13:24:43;;;;;;;7.45;6.75;;;;;;;;;;5038102;28;20206;-76
2022/08/31 13:27:16;;;;;;;7.25;6.65;;;;;;;;;;5037940;28;20184;-76
2022/08/31 13:29:43;;;;;;;7.80;6.82;;;;;;;;;;5054380;28;20170;-76
2022/08/31 13:32:11;;;;;;;6.68;6.13;;;;;;;;;;5037629;28;20198;-76
2022/08/31 13:34:43;;;;;;;6.82;6.22;;;;;;;;;;5054109;28;20174;-76
2022/08/31 13:37:17;;;;;;;6.95;6.35;;;;;;;;;;5054036;28;20228;-76
2022/08/31 13:39:44;;;;;;;6.90;6.22;;;;;;;;;;5054198;28;20636;-76
2022/08/31 13:42:30;;;;;;;7.63;6.93;;;;;;;;;;5053578;28;20212;-76
2022/08/31 13:45:00;;;;;;;6.43;5.90;;;;;;;;;;5055100;28;20193;-76
2022/08/31 13:47:33;;;;;;;6.20;5.60;;;;;;;;;;5055061;28;20172;-76
2022/08/31 13:50:01;;;;;;;6.22;5.63;;;;;;;;;;5054024;28;20608;-76
2022/08/31 13:52:29;;;;;;;5.88;5.18;;;;;;;;;;5054876;28;20185;-76
2022/08/31 13:55:00;;;;;;;5.60;5.07;;;;;;;;;;5037174;28;20228;-76
2022/08/31 13:57:27;;;;;;;7.05;5.80;;;;;;;;;;5053704;28;20224;-76
2022/08/31 13:59:54;;;;;;;6.30;5.70;;;;;;;;;;5054795;28;20260;-76
2022/08/31 14:02:21;;;;;;;6.15;5.55;;;;;;;;;;5054625;28;20195;-76
2022/08/31 14:07:23;;;;;;;6.55;5.95;;;;;;;;;;5054919;28;20675;-76
2022/08/31 14:09:52;;;;;;;6.82;5.80;;;;;;;;;;5036904;28;20690;-76
2022/08/31 14:12:20;;;;;;;6.40;5.78;;;;;;;;;;5054761;28;20193;-76
2022/08/31 14:14:47;;;;;;;6.13;5.60;;;;;;;;;;5054518;28;20228;-76
2022/08/31 14:17:14;;;;;;;5.75;5.25;;;;;;;;;;5053218;28;20182;-76
2022/08/31 14:19:41;;;;;;;6.30;5.00;;;;;;;;;;5037014;28;20178;-76
2022/08/31 14:22:15;;;;;;;5.45;4.82;;;;;;;;;;5054221;28;20194;-76
2022/08/31 14:24:42;;;;;;;5.80;4.57;;;;;;;;;;5053174;28;20200;-76
2022/08/31 14:27:10;;;;;;;4.63;4.25;;;;;;;;;;5036602;28;20183;-76
2022/08/31 14:29:39;;;;;;;6.80;4.70;;;;;;;;;;5036851;28;20181;-76
2022/08/31 14:32:05;;;;;;;4.93;3.95;;;;;;;;;;5054030;28;20230;-75
2022/08/31 14:34:32;;;;;;;4.60;4.20;;;;;;;;;;5036563;28;20292;-75
2022/08/31 14:37:18;;;;;;;4.32;4.00;;;;;;;;;;5052864;28;20269;-75
2022/08/31 14:39:46;;;;;;;4.72;4.30;;;;;;;;;;5052826;28;20253;-75
2022/08/31 14:42:17;;;;;;;5.55;3.78;;;;;;;;;;5052407;28;20204;-76
2022/08/31 14:44:55;;;;;;;4.80;3.63;;;;;;;;;;5052775;28;20761;-75
2022/08/31 14:47:21;;;;;;;4.97;3.53;;;;;;;;;;5036966;28;20173;-75
2022/08/31 14:49:48;;;;;;;3.83;3.42;;;;;;;;;;5036215;28;20197;-75
2022/08/31 14:52:14;;;;;;;4.85;3.20;;;;;;;;;;5036207;28;20197;-76
2022/08/31 14:54:41;;;;;;;4.45;3.25;;;;;;;;;;5053919;28;20216;-75
2022/08/31 14:57:10;;;;;;;3.90;3.60;;;;;;;;;;5052558;28;20178;-75
2022/08/31 14:59:39;;;;;;;4.80;3.30;;;;;;;;;;5052559;28;20174;-75
2022/08/31 15:02:06;;;;;;;4.63;3.42;;;;;;;;;;5036062;28;20197;-75
2022/08/31 15:04:32;;;;;;;2.72;2.53;;;;;;;;;;5035708;28;20699;-75
2022/08/31 15:07:04;;;;;;;2.55;2.35;;;;;;;;;;5052427;28;20671;-76
2022/08/31 15:09:30;;;;;;;3.63;2.58;;;;;;;;;;5036825;28;20181;-76
2022/08/31 15:12:00;;;;;;;3.42;2.60;;;;;;;;;;5035708;28;20193;-76
2022/08/31 15:14:26;;;;;;;3.92;2.53;;;;;;;;;;5052179;28;20565;-75
2022/08/31 15:16:53;;;;;;;2.95;2.70;;;;;;;;;;5050266;28;20273;-75
2022/08/31 15:19:21;;;;;;;2.80;2.60;;;;;;;;;;5029768;28;20174;-76
2022/08/31 15:21:51;;;;;;;3.97;2.60;;;;;;;;;;5042883;28;20570;-76
2022/08/31 15:24:18;;;;;;;3.60;2.60;;;;;;;;;;5036452;28;20205;-76
2022/08/31 15:26:44;;;;;;;2.90;2.60;;;;;;;;;;5058119;28;20268;-75
2022/08/31 15:29:14;;;;;;;3.28;2.90;;;;;;;;;;5051072;28;20268;-75
2022/08/31 15:31:46;;;;;;;3.05;2.70;;;;;;;;;;5051243;28;20250;-75
2022/08/31 15:34:17;;;;;;;2.70;2.50;;;;;;;;;;5051876;28;20176;-75
2022/08/31 15:36:44;;;;;;;2.70;2.30;;;;;;;;;;5035716;28;20181;-75
2022/08/31 15:39:10;;;;;;;2.35;2.13;;;;;;;;;;5051643;28;20188;-75
2022/08/31 15:41:37;;;;;;;2.90;2.38;;;;;;;;;;5051418;28;20206;-75
2022/08/31 15:44:09;;;;;;;2.50;2.30;;;;;;;;;;5019109;28;20224;-75
2022/08/31 15:49:20;;;;;;;5.78;2.17;;;;;;;;;;5032232;28;20564;-76
2022/08/31 15:51:50;;;;;;;3.28;2.00;;;;;;;;;;5015008;28;20541;-76
2022/08/31 15:54:18;;;;;;;3.35;2.13;;;;;;;;;;5015662;28;20185;-76
2022/08/31 15:56:44;;;;;;;2.42;2.10;;;;;;;;;;5031566;28;20562;-76
2022/08/31 15:59:10;;;;;;;3.13;2.08;;;;;;;;;;5031625;28;20636;-76
2022/08/31 16:01:37;;;;;;;2.85;1.90;;;;;;;;;;5014784;28;20202;-76
2022/08/31 16:04:03;;;;;;;3.38;2.15;;;;;;;;;;5014865;28;20746;-76
2022/08/31 16:06:33;;;;;;;2.95;1.90;;;;;;;;;;5032489;28;20637;-77
2022/08/31 16:09:00;;;;;;;2.83;1.83;;;;;;;;;;5031180;28;20170;-78
2022/08/31 16:11:27;;;;;;;1.73;1.50;;;;;;;;;;5031304;28;20190;-77
2022/08/31 16:13:57;;;;;;;2.33;1.70;;;;;;;;;;5014879;28;20239;-77
2022/08/31 16:16:28;;;;;;;1.95;1.75;;;;;;;;;;5031294;28;20225;-78
2022/08/31 16:18:58;;;;;;;4.10;1.75;;;;;;;;;;5016774;28;20224;-78
2022/08/31 16:21:26;;;;;;;1.80;1.70;;;;;;;;;;5034764;28;20201;-78